createdAt,value
2023-03-17T00:01:27.698Z,0.72
2023-03-17T00:03:55.384Z,0.71
2023-03-17T00:06:24.791Z,0.77
2023-03-17T00:08:52.349Z,0.77
2023-03-17T00:11:20.011Z,0.74
2023-03-17T00:13:47.675Z,0.73
2023-03-17T00:16:15.900Z,0.69
2023-03-17T00:18:43.625Z,0.71
2023-03-17T00:21:12.208Z,0.75
2023-03-17T00:23:39.865Z,0.79
2023-03-17T00:26:07.523Z,0.81
2023-03-17T00:28:35.183Z,0.82
2023-03-17T00:31:03.506Z,0.83
2023-03-17T00:33:33.250Z,0.82
2023-03-17T00:36:01.573Z,0.80
2023-03-17T00:38:29.929Z,0.75
2023-03-17T00:40:57.585Z,0.66
2023-03-17T00:43:25.447Z,0.59
2023-03-17T00:45:53.113Z,0.53
2023-03-17T00:48:20.974Z,0.46
2023-03-17T00:50:48.841Z,0.40
2023-03-17T00:53:16.910Z,0.36
2023-03-17T00:55:44.779Z,0.34
2023-03-17T00:58:12.645Z,0.33
2023-03-17T01:00:40.352Z,0.30
2023-03-17T01:03:08.173Z,0.27
2023-03-17T01:05:35.765Z,0.26
2023-03-17T01:08:03.905Z,0.26
2023-03-17T01:10:31.994Z,0.27
2023-03-17T01:12:59.950Z,0.29
2023-03-17T01:15:27.606Z,0.32
2023-03-17T01:17:55.920Z,0.31
2023-03-17T01:20:23.797Z,0.31
2023-03-17T01:22:51.612Z,0.30
2023-03-17T01:25:19.215Z,0.30
2023-03-17T01:27:46.840Z,0.22
2023-03-17T01:30:14.911Z,0.13
2023-03-17T01:32:42.805Z,0.04
2023-03-17T01:35:10.537Z,-0.01
2023-03-17T01:37:38.616Z,0.00
2023-03-17T01:40:06.275Z,0.01
2023-03-17T01:42:34.248Z,0.04
2023-03-17T01:45:01.903Z,0.05
2023-03-17T01:47:32.634Z,0.08
2023-03-17T01:50:00.808Z,0.17
2023-03-17T01:52:28.993Z,0.23
2023-03-17T01:54:56.853Z,0.23
2023-03-17T01:57:24.510Z,0.25
2023-03-17T01:59:52.287Z,0.26
2023-03-17T02:02:19.948Z,0.27
2023-03-17T02:04:47.604Z,0.29
2023-03-17T02:07:15.166Z,0.30
2023-03-17T02:09:42.818Z,0.30
2023-03-17T02:12:10.477Z,0.28
2023-03-17T02:14:38.045Z,0.26
2023-03-17T02:17:05.699Z,0.23
2023-03-17T02:19:34.385Z,0.21
2023-03-17T02:22:02.780Z,0.15
2023-03-17T02:24:30.945Z,0.07
2023-03-17T02:26:58.803Z,0.00
2023-03-17T02:29:27.801Z,-0.09
2023-03-17T02:31:55.465Z,-0.15
2023-03-17T02:34:23.121Z,-0.22
2023-03-17T02:36:50.840Z,-0.28
2023-03-17T02:39:18.551Z,-0.31
2023-03-17T02:41:46.312Z,-0.36
2023-03-17T02:44:13.973Z,-0.42
2023-03-17T02:46:41.736Z,-0.48
2023-03-17T02:49:09.402Z,-0.51
2023-03-17T02:51:37.378Z,-0.54
2023-03-17T02:54:05.032Z,-0.57
2023-03-17T02:56:33.010Z,-0.59
2023-03-17T02:59:00.660Z,-0.59
2023-03-17T03:01:29.641Z,-0.61
2023-03-17T03:03:57.423Z,-0.65
2023-03-17T03:06:25.081Z,-0.67
2023-03-17T03:08:52.743Z,-0.61
2023-03-17T03:11:20.613Z,-0.55
2023-03-17T03:13:48.290Z,-0.54
2023-03-17T03:16:15.865Z,-0.52
2023-03-17T03:18:43.594Z,-0.48
2023-03-17T03:21:11.255Z,-0.45
2023-03-17T03:23:38.932Z,-0.42
2023-03-17T03:26:06.585Z,-0.38
2023-03-17T03:28:34.241Z,-0.36
2023-03-17T03:31:01.948Z,-0.34
2023-03-17T03:33:29.668Z,-0.32
2023-03-17T03:35:58.284Z,-0.31
2023-03-17T03:38:26.326Z,-0.31
2023-03-17T03:40:53.888Z,-0.33
2023-03-17T03:43:23.882Z,-0.34
2023-03-17T03:45:51.919Z,-0.34
2023-03-17T03:48:19.640Z,-0.36
2023-03-17T03:50:47.294Z,-0.37
2023-03-17T03:53:15.471Z,-0.39
2023-03-17T03:55:43.120Z,-0.41
2023-03-17T03:58:11.500Z,-0.45
2023-03-17T04:00:39.158Z,-0.49
2023-03-17T04:03:06.865Z,-0.53
2023-03-17T04:05:34.488Z,-0.63
2023-03-17T04:08:02.151Z,-0.69
2023-03-17T04:10:30.030Z,-0.76
2023-03-17T04:12:57.813Z,-0.85
2023-03-17T04:15:25.440Z,-0.83
2023-03-17T04:17:55.249Z,-0.80
2023-03-17T04:20:22.917Z,-0.80
2023-03-17T04:22:50.683Z,-0.79
2023-03-17T04:25:18.972Z,-0.76
2023-03-17T04:27:46.819Z,-0.74
2023-03-17T04:30:14.805Z,-0.72
2023-03-17T04:32:42.596Z,-0.72
2023-03-17T04:35:11.135Z,-0.73
2023-03-17T04:37:39.106Z,-0.73
2023-03-17T04:40:08.707Z,-0.75
2023-03-17T04:42:36.370Z,-0.75
2023-03-17T04:45:04.143Z,-0.75
2023-03-17T04:47:32.303Z,-0.77
2023-03-17T04:50:00.075Z,-0.81
2023-03-17T04:52:27.835Z,-0.85
2023-03-17T04:54:55.598Z,-0.89
2023-03-17T04:57:24.691Z,-0.93
2023-03-17T04:59:52.412Z,-0.98
2023-03-17T05:02:26.460Z,-1.00
2023-03-17T05:04:54.849Z,-1.01
2023-03-17T05:07:22.610Z,-0.98
2023-03-17T05:09:50.477Z,-0.98
2023-03-17T05:12:18.240Z,-1.01
2023-03-17T05:14:46.824Z,-0.95
2023-03-17T05:17:14.704Z,-0.89
2023-03-17T05:19:42.761Z,-0.76
2023-03-17T05:22:10.731Z,-0.66
2023-03-17T05:24:38.397Z,-0.63
2023-03-17T05:27:06.257Z,-0.56
2023-03-17T05:29:34.023Z,-0.53
2023-03-17T05:32:01.687Z,-0.51
2023-03-17T05:34:29.347Z,-0.47
2023-03-17T05:36:57.210Z,-0.45
2023-03-17T05:39:24.976Z,-0.44
2023-03-17T05:41:52.637Z,-0.43
2023-03-17T05:44:21.019Z,-0.42
2023-03-17T05:46:48.679Z,-0.41
2023-03-17T05:49:16.352Z,-0.41
2023-03-17T05:51:44.003Z,-0.39
2023-03-17T05:54:11.669Z,-0.38
2023-03-17T05:56:39.427Z,-0.37
2023-03-17T05:59:07.089Z,-0.30
2023-03-17T06:01:34.856Z,-0.24
2023-03-17T06:04:02.822Z,-0.17
2023-03-17T06:06:30.485Z,-0.12
2023-03-17T06:08:58.252Z,-0.06
2023-03-17T06:11:26.937Z,0.01
2023-03-17T06:13:54.800Z,0.08
2023-03-17T06:16:22.716Z,0.15
2023-03-17T06:18:50.739Z,0.22
2023-03-17T06:21:18.920Z,0.29
2023-03-17T06:23:46.675Z,0.37
2023-03-17T06:26:14.444Z,0.44
2023-03-17T06:28:42.105Z,0.54
2023-03-17T06:31:09.921Z,0.69
2023-03-17T06:33:38.243Z,0.81
2023-03-17T06:36:06.677Z,0.89
2023-03-17T06:38:34.489Z,1.00
2023-03-17T06:41:02.153Z,1.10
2023-03-17T06:43:29.913Z,1.17
2023-03-17T06:45:57.575Z,1.24
2023-03-17T06:48:25.347Z,1.30
2023-03-17T06:50:53.104Z,1.37
2023-03-17T06:53:21.070Z,1.44
2023-03-17T06:55:48.734Z,1.51
2023-03-17T06:58:17.316Z,1.57
2023-03-17T07:00:45.723Z,1.63
2023-03-17T07:03:13.567Z,1.71
2023-03-17T07:05:42.044Z,1.79
2023-03-17T07:08:09.702Z,1.88
2023-03-17T07:10:37.463Z,1.95
2023-03-17T07:13:07.895Z,2.02
2023-03-17T07:15:36.171Z,2.09
2023-03-17T07:18:04.240Z,2.17
2023-03-17T07:20:32.032Z,2.24
2023-03-17T07:22:59.870Z,2.34
2023-03-17T07:25:27.533Z,2.42
2023-03-17T07:27:55.196Z,2.50
2023-03-17T07:30:22.869Z,2.60
2023-03-17T07:32:50.646Z,2.69
2023-03-17T07:35:19.568Z,2.79
2023-03-17T07:37:47.583Z,2.88
2023-03-17T07:40:15.341Z,2.96
2023-03-17T07:42:43.007Z,3.05
2023-03-17T07:45:10.799Z,3.13
2023-03-17T07:47:39.454Z,3.21
2023-03-17T07:50:07.113Z,3.30
2023-03-17T07:52:34.883Z,3.40
2023-03-17T07:55:02.869Z,3.50
2023-03-17T07:57:30.633Z,3.60
2023-03-17T07:59:58.988Z,3.70
2023-03-17T08:02:26.684Z,3.79
2023-03-17T08:04:54.517Z,3.90
2023-03-17T08:07:22.186Z,4.00
2023-03-17T08:09:50.113Z,4.09
2023-03-17T08:12:17.818Z,4.18
2023-03-17T08:14:45.473Z,4.26
2023-03-17T08:17:13.772Z,4.34
2023-03-17T08:19:41.512Z,4.44
2023-03-17T08:22:09.894Z,4.52
2023-03-17T08:24:38.614Z,4.59
2023-03-17T08:27:06.355Z,4.66
2023-03-17T08:29:34.121Z,4.75
2023-03-17T08:32:01.882Z,4.82
2023-03-17T08:34:29.529Z,4.89
2023-03-17T08:36:57.605Z,4.95
2023-03-17T08:39:25.572Z,5.03
2023-03-17T08:41:53.238Z,5.08
2023-03-17T08:44:22.017Z,5.14
2023-03-17T08:46:49.782Z,5.22
2023-03-17T08:49:17.651Z,5.29
2023-03-17T08:51:45.451Z,5.37
2023-03-17T08:54:13.180Z,5.43
2023-03-17T08:56:40.859Z,5.49
2023-03-17T08:59:08.720Z,5.57
2023-03-17T09:01:36.409Z,5.66
2023-03-17T09:04:04.234Z,5.74
2023-03-17T09:06:32.365Z,5.83
2023-03-17T09:09:00.598Z,5.91
2023-03-17T09:11:28.243Z,5.99
2023-03-17T09:13:56.006Z,6.09
2023-03-17T09:16:24.251Z,6.18
2023-03-17T09:18:52.155Z,6.25
2023-03-17T09:21:19.812Z,6.35
2023-03-17T09:23:47.509Z,6.43
2023-03-17T09:26:15.444Z,6.50
2023-03-17T09:28:43.753Z,6.55
2023-03-17T09:31:11.614Z,6.62
2023-03-17T09:33:39.870Z,6.71
2023-03-17T09:36:07.664Z,6.79
2023-03-17T09:38:36.002Z,6.86
2023-03-17T09:41:03.667Z,6.99
2023-03-17T09:43:31.433Z,7.09
2023-03-17T09:45:59.087Z,7.18
2023-03-17T09:48:27.569Z,7.28
2023-03-17T09:50:55.238Z,7.39
2023-03-17T09:53:22.897Z,7.50
2023-03-17T09:55:50.656Z,7.61
2023-03-17T09:58:18.419Z,7.70
2023-03-17T10:00:46.595Z,7.80
2023-03-17T10:03:14.666Z,7.90
2023-03-17T10:05:42.374Z,7.98
2023-03-17T10:08:27.070Z,8.05
2023-03-17T10:10:57.617Z,8.16
2023-03-17T10:13:25.468Z,8.28
2023-03-17T10:15:53.275Z,8.37
2023-03-17T10:18:22.237Z,8.44
2023-03-17T10:20:51.664Z,8.50
2023-03-17T10:23:19.620Z,8.55
2023-03-17T10:25:48.396Z,8.62
2023-03-17T10:28:16.248Z,8.71
2023-03-17T10:30:44.129Z,8.78
2023-03-17T10:33:12.819Z,8.83
2023-03-17T10:35:40.930Z,8.84
2023-03-17T10:38:14.348Z,8.87
2023-03-17T10:40:42.972Z,8.95
2023-03-17T10:43:11.349Z,9.02
2023-03-17T10:45:43.308Z,9.09
2023-03-17T10:48:12.509Z,9.13
2023-03-17T10:50:41.304Z,9.17
2023-03-17T10:53:08.959Z,9.28
2023-03-17T10:55:37.239Z,9.37
2023-03-17T10:58:05.005Z,9.42
2023-03-17T11:00:35.602Z,9.48
2023-03-17T11:03:03.517Z,9.52
2023-03-17T11:05:31.476Z,9.56
2023-03-17T11:07:59.231Z,9.60
2023-03-17T11:10:26.897Z,9.62
2023-03-17T11:12:54.557Z,9.63
2023-03-17T11:15:23.037Z,9.64
2023-03-17T11:17:50.800Z,9.67
2023-03-17T11:20:18.461Z,9.68
2023-03-17T11:22:46.739Z,9.73
2023-03-17T11:25:14.402Z,9.77
2023-03-17T11:27:42.471Z,9.80
2023-03-17T11:30:11.236Z,9.87
2023-03-17T11:32:39.990Z,9.90
2023-03-17T11:35:07.914Z,9.93
2023-03-17T11:37:36.264Z,9.97
2023-03-17T11:40:04.256Z,9.98
2023-03-17T11:42:32.134Z,10.00
2023-03-17T11:44:59.906Z,10.00
2023-03-17T11:47:28.580Z,10.04
2023-03-17T11:49:56.243Z,10.07
2023-03-17T11:52:24.014Z,10.06
2023-03-17T11:54:54.183Z,10.10
2023-03-17T11:57:23.020Z,10.14
2023-03-17T11:59:52.277Z,10.20
2023-03-17T12:02:19.970Z,10.31
2023-03-17T12:04:47.785Z,10.38
2023-03-17T12:07:15.601Z,10.40
2023-03-17T12:09:43.572Z,10.46
2023-03-17T12:12:11.433Z,10.50
2023-03-17T12:14:39.843Z,10.53
2023-03-17T12:17:07.577Z,10.57
2023-03-17T12:19:37.081Z,10.60
2023-03-17T12:22:04.743Z,10.63
2023-03-17T12:24:32.815Z,10.65
2023-03-17T12:27:00.792Z,10.67
2023-03-17T12:29:28.544Z,10.70
2023-03-17T12:31:56.207Z,10.72
2023-03-17T12:34:24.382Z,10.71
2023-03-17T12:36:52.453Z,10.74
2023-03-17T12:39:20.217Z,10.74
2023-03-17T12:41:48.187Z,10.71
2023-03-17T12:44:16.052Z,10.69
2023-03-17T12:46:43.885Z,10.69
2023-03-17T12:49:11.678Z,10.70
2023-03-17T12:51:40.161Z,10.74
2023-03-17T12:54:07.821Z,10.75
2023-03-17T12:56:35.503Z,10.74
2023-03-17T12:59:03.762Z,10.76
2023-03-17T13:01:32.574Z,10.76
2023-03-17T13:04:00.512Z,10.74
2023-03-17T13:06:28.342Z,10.72
2023-03-17T13:08:56.044Z,10.73
2023-03-17T13:11:23.704Z,10.74
2023-03-17T13:13:52.392Z,10.74
2023-03-17T13:16:20.113Z,10.75
2023-03-17T13:18:48.131Z,10.75
2023-03-17T13:21:16.504Z,10.78
2023-03-17T13:23:44.345Z,10.81
2023-03-17T13:26:12.035Z,10.84
2023-03-17T13:28:41.435Z,10.89
2023-03-17T13:31:10.297Z,10.94
2023-03-17T13:33:38.912Z,10.96
2023-03-17T13:36:06.607Z,11.01
2023-03-17T13:38:34.336Z,11.06
2023-03-17T13:41:01.994Z,11.07
2023-03-17T13:43:30.284Z,11.08
2023-03-17T13:45:57.932Z,11.10
2023-03-17T13:48:27.446Z,11.13
2023-03-17T13:50:55.102Z,11.14
2023-03-17T13:53:23.888Z,11.09
2023-03-17T13:55:53.033Z,11.05
2023-03-17T13:58:20.741Z,11.04
2023-03-17T14:00:49.233Z,10.95
2023-03-17T14:03:17.603Z,10.86
2023-03-17T14:05:45.782Z,10.78
2023-03-17T14:08:14.260Z,10.73
2023-03-17T14:10:43.662Z,10.68
2023-03-17T14:13:11.531Z,10.64
2023-03-17T14:15:42.261Z,10.62
2023-03-17T14:18:11.257Z,10.60
2023-03-17T14:20:39.021Z,10.57
2023-03-17T14:23:06.802Z,10.53
2023-03-17T14:25:34.547Z,10.53
2023-03-17T14:28:02.214Z,10.51
2023-03-17T14:30:30.824Z,10.49
2023-03-17T14:32:58.597Z,10.48
2023-03-17T14:35:26.524Z,10.51
2023-03-17T14:37:54.288Z,10.59
2023-03-17T14:40:22.467Z,10.75
2023-03-17T14:42:50.417Z,10.89
2023-03-17T14:45:18.093Z,11.00
2023-03-17T14:47:45.763Z,11.09
2023-03-17T14:50:13.635Z,11.13
2023-03-17T14:52:41.694Z,11.15
2023-03-17T14:55:09.559Z,11.19
2023-03-17T14:57:37.205Z,11.18
2023-03-17T15:00:05.295Z,11.13
2023-03-17T15:02:34.582Z,11.11
2023-03-17T15:05:02.429Z,11.05
2023-03-17T15:07:30.222Z,10.99
2023-03-17T15:09:58.090Z,10.94
2023-03-17T15:12:25.956Z,10.91
2023-03-17T15:14:53.721Z,10.88
2023-03-17T15:17:21.383Z,10.88
2023-03-17T15:19:49.174Z,10.88
2023-03-17T15:22:16.911Z,10.81
2023-03-17T15:24:44.776Z,10.74
2023-03-17T15:27:12.428Z,10.73
2023-03-17T15:29:40.101Z,10.70
2023-03-17T15:32:07.864Z,10.61
2023-03-17T15:34:35.527Z,10.51
2023-03-17T15:37:03.192Z,10.40
2023-03-17T15:39:30.849Z,10.31
2023-03-17T15:41:58.614Z,10.21
2023-03-17T15:44:26.582Z,10.11
2023-03-17T15:46:54.549Z,10.01
2023-03-17T15:49:25.253Z,9.94
2023-03-17T15:51:54.488Z,9.87
2023-03-17T15:54:22.445Z,9.81
2023-03-17T15:56:50.130Z,9.77
2023-03-17T15:59:17.885Z,9.71
2023-03-17T16:01:45.785Z,9.63
2023-03-17T16:04:13.881Z,9.55
2023-03-17T16:06:42.088Z,9.47
2023-03-17T16:09:09.749Z,9.39
2023-03-17T16:11:39.403Z,9.29
2023-03-17T16:14:08.013Z,9.25
2023-03-17T16:16:36.109Z,9.18
2023-03-17T16:19:05.006Z,9.10
2023-03-17T16:21:32.659Z,9.03
2023-03-17T16:24:00.427Z,8.95
2023-03-17T16:26:28.229Z,8.89
2023-03-17T16:28:56.055Z,8.84
2023-03-17T16:31:24.057Z,8.77
2023-03-17T16:33:52.950Z,8.72
2023-03-17T16:36:20.887Z,8.67
2023-03-17T16:38:49.368Z,8.61
2023-03-17T16:41:17.335Z,8.55
2023-03-17T16:43:45.202Z,8.50
2023-03-17T16:46:12.902Z,8.46
2023-03-17T16:48:40.732Z,8.40
2023-03-17T16:51:08.699Z,8.34
2023-03-17T16:53:36.467Z,8.29
2023-03-17T16:56:04.230Z,8.20
2023-03-17T16:58:31.905Z,8.15
2023-03-17T17:01:02.320Z,8.07
2023-03-17T17:03:30.087Z,7.98
2023-03-17T17:05:57.848Z,7.90
2023-03-17T17:08:25.612Z,7.86
2023-03-17T17:10:53.373Z,7.80
2023-03-17T17:13:21.041Z,7.73
2023-03-17T17:15:48.840Z,7.70
2023-03-17T17:18:16.670Z,7.64
2023-03-17T17:20:44.326Z,7.57
2023-03-17T17:23:11.998Z,7.52
2023-03-17T17:25:39.754Z,7.46
2023-03-17T17:28:07.418Z,7.41
2023-03-17T17:30:35.077Z,7.36
2023-03-17T17:33:02.877Z,7.31
2023-03-17T17:35:32.509Z,7.26
2023-03-17T17:38:00.827Z,7.20
2023-03-17T17:40:29.099Z,7.14
2023-03-17T17:42:58.095Z,7.08
2023-03-17T17:45:26.299Z,7.04
2023-03-17T17:47:54.035Z,6.98
2023-03-17T17:50:21.700Z,6.92
2023-03-17T17:52:49.462Z,6.87
2023-03-17T17:55:17.222Z,6.81
2023-03-17T17:57:44.988Z,6.78
2023-03-17T18:00:12.750Z,6.76
2023-03-17T18:02:40.520Z,6.73
2023-03-17T18:05:09.195Z,6.67
2023-03-17T18:07:36.872Z,6.61
2023-03-17T18:10:04.623Z,6.55
2023-03-17T18:12:32.284Z,6.50
2023-03-17T18:15:00.056Z,6.43
2023-03-17T18:17:28.247Z,6.39
2023-03-17T18:19:57.406Z,6.37
2023-03-17T18:22:25.183Z,6.34
2023-03-17T18:24:53.459Z,6.31
2023-03-17T18:27:21.530Z,6.27
2023-03-17T18:29:49.294Z,6.24
2023-03-17T18:32:16.959Z,6.20
2023-03-17T18:34:44.826Z,6.14
2023-03-17T18:37:12.691Z,6.10
2023-03-17T18:39:41.165Z,6.07
2023-03-17T18:42:08.839Z,6.05
2023-03-17T18:44:36.554Z,6.02
2023-03-17T18:47:04.257Z,5.98
2023-03-17T18:49:32.028Z,5.93
2023-03-17T18:51:59.994Z,5.86
2023-03-17T18:54:27.866Z,5.83
2023-03-17T18:56:56.029Z,5.81
2023-03-17T18:59:23.896Z,5.77
2023-03-17T19:01:51.564Z,5.74
2023-03-17T19:04:19.321Z,5.70
2023-03-17T19:06:47.192Z,5.64
2023-03-17T19:09:14.957Z,5.59
2023-03-17T19:11:43.124Z,5.55
2023-03-17T19:14:12.120Z,5.50
2023-03-17T19:16:40.444Z,5.49
2023-03-17T19:19:08.269Z,5.43
2023-03-17T19:21:36.022Z,5.41
2023-03-17T19:24:05.127Z,5.37
2023-03-17T19:26:33.808Z,5.35
2023-03-17T19:29:02.329Z,5.31
2023-03-17T19:31:30.357Z,5.28
2023-03-17T19:33:58.016Z,5.25
2023-03-17T19:36:26.292Z,5.24
2023-03-17T19:38:54.058Z,5.22
2023-03-17T19:41:21.824Z,5.18
2023-03-17T19:43:49.484Z,5.17
2023-03-17T19:46:17.613Z,5.15
2023-03-17T19:48:45.731Z,5.13
2023-03-17T19:51:13.619Z,5.12
2023-03-17T19:53:41.568Z,5.09
2023-03-17T19:56:11.179Z,5.06
2023-03-17T19:58:39.251Z,5.04
2023-03-17T20:01:07.783Z,5.06
2023-03-17T20:03:35.693Z,5.03
2023-03-17T20:06:06.338Z,5.01
2023-03-17T20:08:34.088Z,4.98
2023-03-17T20:11:02.261Z,4.94
2023-03-17T20:13:29.926Z,4.94
2023-03-17T20:15:57.808Z,4.93
2023-03-17T20:18:25.870Z,4.92
2023-03-17T20:20:53.642Z,4.91
2023-03-17T20:23:21.901Z,4.90
2023-03-17T20:25:49.869Z,4.89
2023-03-17T20:28:17.745Z,4.88
2023-03-17T20:30:45.525Z,4.87
2023-03-17T20:33:13.366Z,4.85
2023-03-17T20:35:41.441Z,4.83
2023-03-17T20:38:09.305Z,4.81
2023-03-17T20:40:36.966Z,4.79
2023-03-17T20:43:04.630Z,4.79
2023-03-17T20:45:32.698Z,4.78
2023-03-17T20:48:01.079Z,4.78
2023-03-17T20:50:31.441Z,4.75
2023-03-17T20:52:59.371Z,4.75
2023-03-17T20:55:27.034Z,4.72
2023-03-17T20:57:54.806Z,4.69
2023-03-17T21:00:22.561Z,4.66
2023-03-17T21:02:50.895Z,4.64
2023-03-17T21:05:19.935Z,4.64
2023-03-17T21:07:48.107Z,4.64
2023-03-17T21:10:15.880Z,4.64
2023-03-17T21:12:44.286Z,4.60
2023-03-17T21:15:16.082Z,4.59
2023-03-17T21:17:51.224Z,4.57
2023-03-17T21:20:23.942Z,4.52
2023-03-17T21:22:52.947Z,4.48
2023-03-17T21:25:20.679Z,4.42
2023-03-17T21:27:49.160Z,4.40
2023-03-17T21:30:16.825Z,4.35
2023-03-17T21:32:44.550Z,4.32
2023-03-17T21:35:12.451Z,4.31
2023-03-17T21:37:40.220Z,4.29
2023-03-17T21:40:08.193Z,4.27
2023-03-17T21:42:35.947Z,4.27
2023-03-17T21:45:03.615Z,4.26
2023-03-17T21:47:31.475Z,4.24
2023-03-17T21:49:59.241Z,4.23
2023-03-17T21:52:27.208Z,4.21
2023-03-17T21:54:54.978Z,4.19
2023-03-17T21:57:23.048Z,4.18
2023-03-17T21:59:51.012Z,4.16
2023-03-17T22:02:18.888Z,4.17
2023-03-17T22:04:47.260Z,4.17
2023-03-17T22:07:14.920Z,4.14
2023-03-17T22:09:42.694Z,4.14
2023-03-17T22:12:10.450Z,4.13
2023-03-17T22:14:38.212Z,4.11
2023-03-17T22:17:05.980Z,4.11
2023-03-17T22:19:33.844Z,4.12
2023-03-17T22:22:02.531Z,4.11
2023-03-17T22:24:31.831Z,4.09
2023-03-17T22:26:59.592Z,4.06
2023-03-17T22:29:27.260Z,4.02
2023-03-17T22:31:55.071Z,4.00
2023-03-17T22:34:23.705Z,4.01
2023-03-17T22:36:51.597Z,4.01
2023-03-17T22:39:19.338Z,3.97
2023-03-17T22:41:47.107Z,3.91
2023-03-17T22:44:14.765Z,3.87
2023-03-17T22:46:42.527Z,3.86
2023-03-17T22:49:10.296Z,3.85
2023-03-17T22:51:38.365Z,3.86
2023-03-17T22:54:06.742Z,3.85
2023-03-17T22:56:34.410Z,3.84
2023-03-17T22:59:02.199Z,3.81
2023-03-17T23:01:31.968Z,3.78
2023-03-17T23:03:59.790Z,3.78
2023-03-17T23:06:27.448Z,3.77
2023-03-17T23:08:55.172Z,3.74
2023-03-17T23:11:23.348Z,3.71
2023-03-17T23:13:51.632Z,3.70
2023-03-17T23:16:20.833Z,3.69
2023-03-17T23:18:49.091Z,3.67
2023-03-17T23:21:17.371Z,3.62
2023-03-17T23:23:45.446Z,3.60
2023-03-17T23:26:13.416Z,3.58
2023-03-17T23:28:41.171Z,3.58
2023-03-17T23:31:09.273Z,3.53
2023-03-17T23:33:37.521Z,3.48
2023-03-17T23:36:05.408Z,3.47
2023-03-17T23:38:34.596Z,3.42
2023-03-17T23:41:02.959Z,3.39
2023-03-17T23:43:31.033Z,3.38
2023-03-17T23:45:59.870Z,3.36
2023-03-17T23:48:27.682Z,3.37
2023-03-17T23:50:55.551Z,3.35
2023-03-17T23:53:23.620Z,3.35
2023-03-17T23:55:51.794Z,3.33
2023-03-17T23:58:19.661Z,3.32
